Nearby METAR Reports

 

KSFO - San Francisco, California, USA
Distance from station: NNW 8km
Updated: Sat, 18-Aug-2018 7:56am PDT
Few Clouds
Few Clouds
 Wind from calm
Wind: Calm
Temperature: 57°F , 14°C
Dew Point: 52°F , 11°C
Humidity: 82%
Barometer: 30.05 inHg , 1017.6 hPa
Clouds: Few Clouds
Visibility: 10 miles , 16 km
Cloud details: Few Clouds 500 ft
2018/08/18 14:56 KSFO 181456Z 00000KT 10SM FEW005 14/11 A3005 RMK AO2 SLP177 T01390111 53008 $
KSQL - San Carlos Airpo, California, USA
Distance from station: ESE 8km
Updated: Sat, 18-Aug-2018 8:47am PDT
Clear
Clear
 Wind from calm
Wind: Calm
Temperature: 63°F , 17°C
Dew Point: 57°F , 14°C
Humidity: 83%
Barometer: 30.06 inHg , 1017.9 hPa
Clouds: Clear
Visibility: 10 miles , 16 km
2018/08/18 15:47 KSQL 181547Z 00000KT 10SM SKC 17/14 A3006
 
KHAF - Half Moon Bay, California, USA
Distance from station: WSW 15km
Updated: Sat, 18-Aug-2018 8:55am PDT
Fog, Overcast
Fog, Overcast
 Wind from S
Wind: S 7 mph , 11 km/h
Temperature: 52°F , 11°C
Dew Point: 52°F , 11°C
Humidity: 100%
Barometer: 30.09 inHg , 1019 hPa
Summary: Fog
Clouds: Overcast
Visibility: less than 1/4 mile , 0.4 km
Cloud details: Overcast 200 ft
2018/08/18 15:55 KHAF 181555Z AUTO 17006KT M1/4SM FG OVC002 11/11 A3009 RMK AO2
KOAK - Oakland, California, USA
Distance from station: NNE 21km
Updated: Sat, 18-Aug-2018 8:53am PDT
Clear
Clear
 Wind from calm
Wind: Calm
Temperature: 61°F , 16°C
Dew Point: 55°F , 13°C
Humidity: 83%
Barometer: 30.06 inHg , 1017.9 hPa
Clouds: Clear
Visibility: 10 miles , 16 km
2018/08/18 15:53 KOAK 181553Z 00000KT 10SM CLR 16/13 A3006 RMK AO2 SLP180 T01610133 $
 
KPAO - Palo Alto, California, USA
Distance from station: ESE 21km
Updated: Sat, 18-Aug-2018 7:47am PDT
Clear
Clear
 Wind from calm
Wind: Calm
Temperature: 61°F , 16°C
Dew Point: 57°F , 14°C
Humidity: 88%
Barometer: 30.07 inHg , 1018.3 hPa
Clouds: Clear
Visibility: 8 miles , 13 km
2018/08/18 14:47 KPAO 181447Z 00000KT 8SM SKC 16/14 A3007
KHWD - Hayward, California, USA
Distance from station: NE 23km
Updated: Sat, 18-Aug-2018 8:54am PDT
Haze, Clear
Haze, Clear
 Wind from calm
Wind: Calm
Temperature: 64°F , 18°C
Dew Point: 54°F , 12°C
Humidity: 68%
Barometer: 30.06 inHg , 1017.9 hPa
Summary: Haze
Clouds: Clear
Visibility: 6 miles , 10 km
2018/08/18 15:54 KHWD 181554Z 00000KT 6SM HZ CLR 18/12 A3006 RMK AO2 SLP188 T01830117
 
KNUQ - Moffett Nas/Mtn, California, USA
Distance from station: ESE 30km
Updated: Sat, 18-Aug-2018 7:56am PDT
Clear
Clear
 Wind from calm
Wind: Calm
Temperature: 61°F , 16°C
Dew Point: 57°F , 14°C
Humidity: 88%
Barometer: 30.06 inHg , 1017.9 hPa
Clouds: Clear
Visibility: 8 miles , 13 km
2018/08/18 14:56 KNUQ 181456Z 00000KT 8SM CLR 16/14 A3006 RMK AO2 SLP183 T01610144 53008 $
KSJC - San Jose, California, USA
Distance from station: ESE 42km
Updated: Sat, 18-Aug-2018 8:53am PDT
Partly cloudy
Partly cloudy
 Wind from varies
Wind: varies 3 mph , 6 km/h
Temperature: 64°F , 18°C
Dew Point: 57°F , 14°C
Humidity: 78%
Barometer: 30.06 inHg , 1017.9 hPa
Clouds: Partly cloudy
Visibility: 7 miles , 11 km
Cloud details: Few Clouds 100 ft
Few Clouds 1000 ft
Partly cloudy 3000 ft
2018/08/18 15:53 KSJC 181553Z VRB03KT 7SM FEW001 FEW010 SCT030 18/14 A3006 RMK AO2 SLP177 FU FEW001 FU FEW010 FU SCT030 T01830144 $
 
KLVK - Livermore, California, USA
Distance from station: ENE 49km
Updated: Sat, 18-Aug-2018 8:53am PDT
Clear
Clear
 Wind from calm
Wind: Calm
Temperature: 68°F , 20°C
Dew Point: 50°F , 10°C
Humidity: 53%
Barometer: 30.05 inHg , 1017.6 hPa
Clouds: Clear
Visibility: 8 miles , 13 km
2018/08/18 15:53 KLVK 181553Z 00000KT 8SM CLR 20/10 A3005 RMK AO2 SLP171 T02000100
KRHV - San Jose/Reid, California, USA
Distance from station: ESE 53km
Updated: Sat, 18-Aug-2018 7:54am PDT
Clear
Clear
 Wind from calm
Wind: Calm
Temperature: 59°F , 15°C
Dew Point: 54°F , 12°C
Humidity: 82%
Barometer: 30.03 inHg , 1016.9 hPa
Clouds: Clear
Visibility: 10 miles , 16 km
2018/08/18 14:54 KRHV 181454Z 00000KT 10SM SKC 15/12 A3003
 
KCCR - Concord, California, USA
Distance from station: NNE 56km
Updated: Sat, 18-Aug-2018 8:53am PDT
Clear
Clear
 Wind from NNW
Wind: NNW 7 mph , 11 km/h
Temperature: 66°F , 19°C
Dew Point: 54°F , 12°C
Humidity: 64%
Barometer: 30.05 inHg , 1017.6 hPa
Clouds: Clear
Visibility: 10 miles , 16 km
2018/08/18 15:53 KCCR 181553Z 34006KT 10SM CLR 19/12 A3005 RMK AO2 SLP160 T01940122
KDVO - Novato/Gnoss Fld, California, USA
Distance from station: NNW 70km
Updated: Sat, 18-Aug-2018 8:35am PDT
Clear
Clear
 Wind from calm
Wind: Calm
Temperature: 57°F , 14°C
Dew Point: 52°F , 11°C
Humidity: 82%
Barometer: 30.06 inHg , 1017.9 hPa
Clouds: Clear
Visibility: 10 miles , 16 km
2018/08/18 15:35 KDVO 181535Z AUTO 00000KT 10SM CLR 14/11 A3006 RMK AO2
 
KAPC - Napa, California, USA
Distance from station: N 73km
Updated: Sat, 18-Aug-2018 8:54am PDT
Clear
Clear
 Wind from calm
Wind: Calm
Temperature: 63°F , 17°C
Dew Point: 55°F , 13°C
Humidity: 77%
Barometer: 30.06 inHg , 1017.9 hPa
Clouds: Clear
Visibility: 10 miles , 16 km
2018/08/18 15:54 KAPC 181554Z 00000KT 10SM CLR 17/13 A3006 RMK AO2 SLP171 T01670128